CFG7AH EDDL-LGSA
Flight info
| Callsign | CFG7AH |
|---|---|
| Flight time | N/A |
| Altitude | 35000 |
| Route | DODEN7Z DODEN Y853 BOMBI DCT DETEV DCT DINKU/N0450F330 M867 XERUM DCT BAVAX DCT RADIZ/N0449F350 DCT DEGUM DCT SABAD DCT VAKSU DCT RODON DCT DIMIS UL604 TRL UL612 RUSOS |
| Aircraft | A21N/M-SDE3FGHIRWY/LB1 |
Departure
| Time | N/A |
|---|---|
| Airport | Düsseldorf Airport (EDDL) |
Arrival
| Time | 2026-05-06 11:14 |
|---|---|
| Airport | Chania International Airport (LGSA) |
| Time | Latitude | Longitude | Altitude | Speed | Heading |
|---|---|---|---|---|---|
| 2026-05-06 09:36 | 44.28849 | 16.17816 | 36994 ft | 447 kts | 147° |
| 2026-05-06 09:36 | 44.23946 | 16.23126 | 36994 ft | 447 kts | 147° |
| 2026-05-06 09:37 | 44.19164 | 16.28291 | 36999 ft | 448 kts | 147° |
| 2026-05-06 09:37 | 44.14261 | 16.33577 | 37001 ft | 448 kts | 147° |
| 2026-05-06 09:38 | 44.09313 | 16.38898 | 37012 ft | 448 kts | 146° |
| 2026-05-06 09:38 | 44.04593 | 16.43965 | 37015 ft | 448 kts | 146° |
| 2026-05-06 09:39 | 43.99626 | 16.49286 | 37022 ft | 448 kts | 146° |
| 2026-05-06 09:39 | 43.94910 | 16.54327 | 37029 ft | 448 kts | 146° |
| 2026-05-06 09:40 | 43.89997 | 16.59568 | 37032 ft | 448 kts | 146° |
| 2026-05-06 09:40 | 43.82527 | 16.67514 | 37036 ft | 448 kts | 147° |
| 2026-05-06 09:41 | 43.77784 | 16.72547 | 37029 ft | 448 kts | 147° |
| 2026-05-06 09:41 | 43.72844 | 16.77776 | 37029 ft | 448 kts | 147° |
| 2026-05-06 09:42 | 43.68005 | 16.82889 | 37024 ft | 448 kts | 147° |
| 2026-05-06 09:42 | 43.63598 | 16.87535 | 37028 ft | 449 kts | 146° |
| 2026-05-06 09:43 | 43.59106 | 16.92263 | 37028 ft | 448 kts | 147° |
| 2026-05-06 09:43 | 43.54592 | 16.97003 | 37031 ft | 448 kts | 146° |
| 2026-05-06 09:44 | 43.49857 | 17.01969 | 37033 ft | 449 kts | 146° |
| 2026-05-06 09:44 | 43.44997 | 17.07053 | 37026 ft | 449 kts | 146° |
| 2026-05-06 09:45 | 43.40086 | 17.12180 | 37022 ft | 449 kts | 146° |
| 2026-05-06 09:45 | 43.35970 | 17.16469 | 37019 ft | 450 kts | 146° |
| 2026-05-06 09:46 | 43.31216 | 17.21413 | 37018 ft | 450 kts | 146° |
| 2026-05-06 09:46 | 43.26559 | 17.26247 | 37017 ft | 450 kts | 146° |
| 2026-05-06 09:47 | 43.21582 | 17.31402 | 37015 ft | 451 kts | 146° |
| 2026-05-06 09:47 | 43.16581 | 17.36571 | 37015 ft | 451 kts | 146° |
| 2026-05-06 09:48 | 43.11733 | 17.41573 | 37015 ft | 451 kts | 146° |
| 2026-05-06 09:48 | 43.06710 | 17.46743 | 37009 ft | 451 kts | 146° |
| 2026-05-06 09:49 | 43.01664 | 17.51926 | 37007 ft | 451 kts | 146° |
| 2026-05-06 09:49 | 42.97021 | 17.56687 | 37015 ft | 451 kts | 146° |
| 2026-05-06 09:50 | 42.92397 | 17.61416 | 37029 ft | 452 kts | 146° |
| 2026-05-06 09:50 | 42.87660 | 17.66253 | 37032 ft | 452 kts | 147° |
| 2026-05-06 09:51 | 42.82848 | 17.71157 | 37031 ft | 452 kts | 147° |
| 2026-05-06 09:51 | 42.78170 | 17.75916 | 37031 ft | 452 kts | 147° |
| 2026-05-06 09:52 | 42.73106 | 17.81055 | 37038 ft | 452 kts | 147° |
| 2026-05-06 09:52 | 42.68098 | 17.86131 | 37043 ft | 452 kts | 147° |
| 2026-05-06 09:53 | 42.63031 | 17.91252 | 37047 ft | 452 kts | 147° |
| 2026-05-06 09:53 | 42.58154 | 17.96173 | 37052 ft | 452 kts | 147° |
| 2026-05-06 09:54 | 42.53084 | 18.01276 | 37054 ft | 453 kts | 147° |
| 2026-05-06 09:54 | 42.48164 | 18.06220 | 37053 ft | 453 kts | 147° |
| 2026-05-06 09:55 | 42.43518 | 18.10879 | 37050 ft | 453 kts | 147° |
| 2026-05-06 09:55 | 42.38600 | 18.15801 | 37050 ft | 453 kts | 147° |
| 2026-05-06 09:56 | 42.33513 | 18.20883 | 37050 ft | 453 kts | 147° |
| 2026-05-06 09:56 | 42.28426 | 18.25952 | 37048 ft | 454 kts | 147° |
| 2026-05-06 09:57 | 42.23896 | 18.30459 | 37049 ft | 454 kts | 147° |
| 2026-05-06 09:57 | 42.18950 | 18.35370 | 37048 ft | 454 kts | 147° |
| 2026-05-06 09:58 | 42.16559 | 18.37739 | 36779 ft | 453 kts | 147° |
| 2026-05-06 09:58 | 42.14071 | 18.40203 | 37302 ft | 454 kts | 147° |
| 2026-05-06 09:58 | 42.12656 | 18.41604 | 37177 ft | 455 kts | 147° |
| 2026-05-06 09:58 | 42.10335 | 18.43900 | 37095 ft | 454 kts | 147° |
| 2026-05-06 09:59 | 42.05253 | 18.48918 | 37048 ft | 454 kts | 147° |
| 2026-05-06 09:59 | 42.00449 | 18.53668 | 37049 ft | 455 kts | 146° |
| 2026-05-06 10:00 | 41.95414 | 18.58902 | 37047 ft | 456 kts | 145° |
| 2026-05-06 10:00 | 41.90887 | 18.63637 | 37048 ft | 456 kts | 145° |
| 2026-05-06 10:01 | 41.85954 | 18.68768 | 37046 ft | 456 kts | 146° |
| 2026-05-06 10:01 | 41.81525 | 18.73357 | 37053 ft | 456 kts | 146° |
| 2026-05-06 10:02 | 41.76609 | 18.78436 | 37053 ft | 457 kts | 146° |
| 2026-05-06 10:02 | 41.71741 | 18.83456 | 37053 ft | 457 kts | 146° |
| 2026-05-06 10:03 | 41.66944 | 18.88392 | 37057 ft | 457 kts | 146° |
| 2026-05-06 10:03 | 41.63395 | 18.92038 | 37063 ft | 457 kts | 146° |
| 2026-05-06 10:04 | 41.58476 | 18.97084 | 37058 ft | 458 kts | 146° |
| 2026-05-06 10:04 | 41.53698 | 19.01972 | 37060 ft | 459 kts | 145° |
| 2026-05-06 10:05 | 41.50791 | 19.04945 | 37059 ft | 459 kts | 145° |
| 2026-05-06 10:06 | 41.50356 | 19.05389 | 37059 ft | 459 kts | 145° |
| 2026-05-06 10:06 | 41.46712 | 19.09110 | 37057 ft | 459 kts | 145° |
| 2026-05-06 10:07 | 41.43379 | 19.12721 | 37056 ft | 459 kts | 143° |
| 2026-05-06 10:07 | 41.38681 | 19.17923 | 37051 ft | 460 kts | 143° |
| 2026-05-06 10:08 | 41.34198 | 19.22876 | 37052 ft | 461 kts | 143° |
| 2026-05-06 10:08 | 41.29666 | 19.27878 | 37047 ft | 461 kts | 143° |
| 2026-05-06 10:09 | 41.24757 | 19.33281 | 37050 ft | 461 kts | 143° |
| 2026-05-06 10:09 | 41.20364 | 19.38107 | 37049 ft | 461 kts | 143° |
| 2026-05-06 10:10 | 41.15757 | 19.43158 | 37051 ft | 461 kts | 143° |
| 2026-05-06 10:10 | 41.11255 | 19.48088 | 37058 ft | 462 kts | 143° |
| 2026-05-06 10:11 | 41.06286 | 19.53516 | 37058 ft | 462 kts | 143° |
| 2026-05-06 10:11 | 41.01623 | 19.58599 | 37061 ft | 462 kts | 143° |
| 2026-05-06 10:12 | 40.96863 | 19.63778 | 37055 ft | 462 kts | 143° |
| 2026-05-06 10:12 | 40.92034 | 19.69024 | 37051 ft | 463 kts | 143° |
| 2026-05-06 10:13 | 40.87101 | 19.74370 | 37048 ft | 464 kts | 143° |
| 2026-05-06 10:13 | 40.82102 | 19.79778 | 37054 ft | 464 kts | 143° |
| 2026-05-06 10:14 | 40.77071 | 19.85209 | 36795 ft | 463 kts | 143° |
| 2026-05-06 10:14 | 40.74577 | 19.87898 | 36980 ft | 464 kts | 143° |
| 2026-05-06 10:14 | 40.72060 | 19.90608 | 37232 ft | 466 kts | 143° |
| 2026-05-06 10:15 | 40.69551 | 19.93308 | 37121 ft | 465 kts | 143° |
| 2026-05-06 10:15 | 40.67076 | 19.95968 | 37091 ft | 465 kts | 143° |
| 2026-05-06 10:15 | 40.62042 | 20.01370 | 37076 ft | 465 kts | 143° |
| 2026-05-06 10:16 | 40.57010 | 20.06759 | 37076 ft | 465 kts | 143° |
| 2026-05-06 10:16 | 40.51993 | 20.12120 | 37083 ft | 466 kts | 143° |
| 2026-05-06 10:17 | 40.47063 | 20.17378 | 37085 ft | 466 kts | 143° |
| 2026-05-06 10:17 | 40.42017 | 20.22751 | 37094 ft | 466 kts | 143° |
| 2026-05-06 10:18 | 40.36954 | 20.28131 | 37104 ft | 467 kts | 143° |
| 2026-05-06 10:18 | 40.31940 | 20.33447 | 37109 ft | 467 kts | 143° |
| 2026-05-06 10:19 | 40.26833 | 20.38852 | 37116 ft | 468 kts | 143° |
| 2026-05-06 10:19 | 40.21762 | 20.44208 | 37115 ft | 468 kts | 143° |
| 2026-05-06 10:20 | 40.16691 | 20.49551 | 37122 ft | 468 kts | 143° |
| 2026-05-06 10:20 | 40.11614 | 20.54876 | 37127 ft | 467 kts | 144° |
| 2026-05-06 10:21 | 40.06275 | 20.59679 | 37134 ft | 465 kts | 151° |
| 2026-05-06 10:21 | 40.00796 | 20.64215 | 37150 ft | 469 kts | 143° |
| 2026-05-06 10:22 | 39.95719 | 20.69648 | 37158 ft | 469 kts | 143° |
| 2026-05-06 10:22 | 39.90678 | 20.75049 | 37159 ft | 469 kts | 143° |
| 2026-05-06 10:23 | 39.85592 | 20.80408 | 37154 ft | 469 kts | 143° |
| 2026-05-06 10:23 | 39.80666 | 20.85556 | 37131 ft | 469 kts | 143° |
| 2026-05-06 10:24 | 39.75614 | 20.90814 | 37118 ft | 469 kts | 143° |
| 2026-05-06 10:24 | 39.70566 | 20.96054 | 37116 ft | 469 kts | 143° |
| 2026-05-06 10:25 | 39.65453 | 21.01350 | 37116 ft | 470 kts | 143° |
| 2026-05-06 10:25 | 39.60419 | 21.06554 | 37125 ft | 471 kts | 143° |
| 2026-05-06 10:26 | 39.55304 | 21.11832 | 37133 ft | 470 kts | 143° |
| 2026-05-06 10:26 | 39.50165 | 21.17124 | 37136 ft | 471 kts | 143° |
| 2026-05-06 10:27 | 39.45040 | 21.22391 | 37146 ft | 471 kts | 143° |
| 2026-05-06 10:27 | 39.39900 | 21.27664 | 37150 ft | 470 kts | 143° |
| 2026-05-06 10:28 | 39.34782 | 21.32905 | 37140 ft | 471 kts | 143° |
| 2026-05-06 10:28 | 39.29668 | 21.38133 | 37132 ft | 471 kts | 143° |
| 2026-05-06 10:29 | 39.24514 | 21.43389 | 37131 ft | 471 kts | 143° |
| 2026-05-06 10:29 | 39.19369 | 21.48624 | 37120 ft | 471 kts | 143° |
| 2026-05-06 10:30 | 39.14222 | 21.53854 | 37110 ft | 472 kts | 143° |
| 2026-05-06 10:30 | 39.09067 | 21.59083 | 37105 ft | 472 kts | 143° |
| 2026-05-06 10:31 | 39.03886 | 21.64327 | 37102 ft | 472 kts | 143° |
| 2026-05-06 10:31 | 38.98704 | 21.69563 | 37101 ft | 472 kts | 144° |
| 2026-05-06 10:32 | 38.93529 | 21.74779 | 37115 ft | 473 kts | 144° |
| 2026-05-06 10:32 | 38.88319 | 21.80022 | 37111 ft | 473 kts | 144° |
| 2026-05-06 10:33 | 38.83154 | 21.85212 | 37113 ft | 473 kts | 144° |
| 2026-05-06 10:33 | 38.77959 | 21.90420 | 37112 ft | 473 kts | 144° |
| 2026-05-06 10:34 | 38.73058 | 21.95323 | 37116 ft | 473 kts | 144° |
| 2026-05-06 10:34 | 38.67881 | 22.00493 | 37109 ft | 472 kts | 144° |
| 2026-05-06 10:35 | 38.62683 | 22.05676 | 37108 ft | 473 kts | 144° |
| 2026-05-06 10:35 | 38.57485 | 22.10848 | 37104 ft | 473 kts | 144° |
| 2026-05-06 10:36 | 38.52300 | 22.15997 | 37113 ft | 474 kts | 144° |
| 2026-05-06 10:36 | 38.47073 | 22.21181 | 37122 ft | 474 kts | 144° |
| 2026-05-06 10:37 | 38.41889 | 22.26308 | 37114 ft | 473 kts | 143° |
| 2026-05-06 10:37 | 38.36680 | 22.31455 | 37104 ft | 473 kts | 143° |
| 2026-05-06 10:38 | 38.31477 | 22.36583 | 37082 ft | 473 kts | 144° |
| 2026-05-06 10:38 | 38.26239 | 22.41735 | 37054 ft | 474 kts | 143° |
| 2026-05-06 10:39 | 38.20998 | 22.46884 | 37036 ft | 474 kts | 144° |
| 2026-05-06 10:39 | 38.15802 | 22.51978 | 37041 ft | 475 kts | 144° |
| 2026-05-06 10:40 | 38.10547 | 22.57119 | 37052 ft | 474 kts | 144° |
| 2026-05-06 10:40 | 38.05310 | 22.62234 | 37055 ft | 475 kts | 143° |
| 2026-05-06 10:41 | 38.00080 | 22.67333 | 37056 ft | 475 kts | 144° |
| 2026-05-06 10:41 | 37.94844 | 22.72426 | 37065 ft | 475 kts | 144° |
| 2026-05-06 10:42 | 37.89599 | 22.77521 | 37066 ft | 475 kts | 144° |
| 2026-05-06 10:42 | 37.84330 | 22.82628 | 37082 ft | 475 kts | 144° |
| 2026-05-06 10:43 | 37.79055 | 22.87732 | 37097 ft | 475 kts | 144° |
| 2026-05-06 10:44 | 37.71744 | 22.94793 | 37100 ft | 476 kts | 144° |
| 2026-05-06 10:44 | 37.66465 | 22.99879 | 37091 ft | 476 kts | 144° |
| 2026-05-06 10:45 | 37.61222 | 23.04919 | 37079 ft | 477 kts | 144° |
| 2026-05-06 10:45 | 37.55930 | 23.10000 | 37069 ft | 476 kts | 144° |
| 2026-05-06 10:46 | 37.50662 | 23.15047 | 37066 ft | 477 kts | 144° |
| 2026-05-06 10:46 | 37.45379 | 23.20098 | 37068 ft | 477 kts | 144° |
| 2026-05-06 10:47 | 37.40250 | 23.24996 | 37070 ft | 477 kts | 144° |
| 2026-05-06 10:47 | 37.34981 | 23.30014 | 37068 ft | 477 kts | 144° |
| 2026-05-06 10:48 | 37.29664 | 23.35075 | 37057 ft | 478 kts | 144° |
| 2026-05-06 10:48 | 37.24374 | 23.40100 | 37045 ft | 478 kts | 144° |
| 2026-05-06 10:49 | 37.19052 | 23.45144 | 36769 ft | 478 kts | 144° |
| 2026-05-06 10:49 | 37.16388 | 23.47665 | 36477 ft | 475 kts | 144° |
| 2026-05-06 10:49 | 37.13735 | 23.50175 | 36179 ft | 472 kts | 144° |
| 2026-05-06 10:49 | 37.11133 | 23.52633 | 35895 ft | 470 kts | 144° |
| 2026-05-06 10:50 | 37.08534 | 23.55085 | 35575 ft | 470 kts | 144° |
| 2026-05-06 10:50 | 37.06227 | 23.57260 | 35199 ft | 471 kts | 144° |
| 2026-05-06 10:50 | 37.03820 | 23.59528 | 34713 ft | 471 kts | 144° |
| 2026-05-06 10:50 | 37.01225 | 23.61973 | 34112 ft | 472 kts | 144° |
| 2026-05-06 10:51 | 36.98582 | 23.64458 | 33469 ft | 473 kts | 144° |
| 2026-05-06 10:51 | 36.95931 | 23.66949 | 32794 ft | 473 kts | 144° |
| 2026-05-06 10:51 | 36.93288 | 23.69429 | 32095 ft | 473 kts | 144° |
| 2026-05-06 10:51 | 36.90806 | 23.71757 | 31454 ft | 473 kts | 144° |
| 2026-05-06 10:52 | 36.88283 | 23.74123 | 30789 ft | 474 kts | 144° |
| 2026-05-06 10:52 | 36.85569 | 23.76664 | 30064 ft | 475 kts | 144° |
| 2026-05-06 10:52 | 36.83272 | 23.78814 | 29438 ft | 475 kts | 144° |
| 2026-05-06 10:52 | 36.80606 | 23.81307 | 28924 ft | 470 kts | 143° |
| 2026-05-06 10:53 | 36.78031 | 23.83714 | 28442 ft | 465 kts | 143° |
| 2026-05-06 10:53 | 36.75568 | 23.86014 | 27965 ft | 462 kts | 143° |
| 2026-05-06 10:53 | 36.73393 | 23.88045 | 27540 ft | 458 kts | 143° |
| 2026-05-06 10:53 | 36.70853 | 23.90412 | 27048 ft | 454 kts | 143° |
| 2026-05-06 10:54 | 36.68326 | 23.92766 | 26556 ft | 451 kts | 143° |
| 2026-05-06 10:54 | 36.65867 | 23.95055 | 26065 ft | 448 kts | 143° |
| 2026-05-06 10:54 | 36.63397 | 23.97351 | 25579 ft | 445 kts | 143° |
| 2026-05-06 10:54 | 36.60915 | 23.99657 | 25092 ft | 441 kts | 143° |
| 2026-05-06 10:55 | 36.58563 | 24.01840 | 24616 ft | 439 kts | 143° |
| 2026-05-06 10:55 | 36.56278 | 24.03960 | 24154 ft | 437 kts | 143° |
| 2026-05-06 10:55 | 36.54546 | 24.05566 | 23812 ft | 435 kts | 143° |
| 2026-05-06 10:55 | 36.52299 | 24.07647 | 23364 ft | 432 kts | 143° |
| 2026-05-06 10:56 | 36.50052 | 24.09727 | 22918 ft | 430 kts | 143° |
| 2026-05-06 10:56 | 36.48460 | 24.11200 | 22601 ft | 429 kts | 143° |
| 2026-05-06 10:56 | 36.47004 | 24.12547 | 22312 ft | 427 kts | 143° |
| 2026-05-06 10:56 | 36.44897 | 24.14495 | 21894 ft | 425 kts | 143° |
| 2026-05-06 10:57 | 36.42542 | 24.16671 | 21418 ft | 423 kts | 143° |
| 2026-05-06 10:57 | 36.40139 | 24.18888 | 20928 ft | 421 kts | 143° |
| 2026-05-06 10:57 | 36.37793 | 24.21050 | 20449 ft | 419 kts | 143° |
| 2026-05-06 10:57 | 36.35444 | 24.23213 | 20123 ft | 419 kts | 143° |
| 2026-05-06 10:58 | 36.33092 | 24.25377 | 20082 ft | 421 kts | 143° |
| 2026-05-06 10:58 | 36.30740 | 24.27541 | 20007 ft | 419 kts | 143° |
| 2026-05-06 10:58 | 36.28593 | 24.29515 | 19456 ft | 421 kts | 143° |
| 2026-05-06 10:58 | 36.26282 | 24.31636 | 18605 ft | 427 kts | 143° |
| 2026-05-06 10:59 | 36.23866 | 24.33854 | 17947 ft | 427 kts | 143° |
| 2026-05-06 10:59 | 36.21509 | 24.35662 | 17423 ft | 422 kts | 157° |
| 2026-05-06 10:59 | 36.18808 | 24.36408 | 16919 ft | 413 kts | 180° |
| 2026-05-06 10:59 | 36.16746 | 24.36159 | 16578 ft | 404 kts | 194° |
| 2026-05-06 11:00 | 36.14472 | 24.35418 | 16158 ft | 399 kts | 199° |
| 2026-05-06 11:00 | 36.12766 | 24.34779 | 15802 ft | 398 kts | 199° |
| 2026-05-06 11:00 | 36.10402 | 24.33937 | 15333 ft | 396 kts | 196° |
| 2026-05-06 11:00 | 36.07881 | 24.33671 | 14890 ft | 391 kts | 178° |
| 2026-05-06 11:01 | 36.05284 | 24.34028 | 14436 ft | 383 kts | 173° |
| 2026-05-06 11:01 | 36.02645 | 24.34525 | 13912 ft | 375 kts | 172° |
| 2026-05-06 11:01 | 36.00345 | 24.34945 | 13437 ft | 369 kts | 173° |
| 2026-05-06 11:01 | 35.97822 | 24.35366 | 12926 ft | 362 kts | 173° |
| 2026-05-06 11:02 | 35.95346 | 24.35748 | 12481 ft | 354 kts | 174° |
| 2026-05-06 11:02 | 35.92911 | 24.36103 | 12047 ft | 345 kts | 174° |
| 2026-05-06 11:02 | 35.90564 | 24.36432 | 11583 ft | 335 kts | 174° |
| 2026-05-06 11:02 | 35.88267 | 24.36749 | 11106 ft | 327 kts | 174° |
| 2026-05-06 11:03 | 35.86223 | 24.37028 | 10703 ft | 318 kts | 174° |
| 2026-05-06 11:03 | 35.84467 | 24.37267 | 10343 ft | 311 kts | 174° |
| 2026-05-06 11:03 | 35.83527 | 24.37394 | 10183 ft | 306 kts | 174° |
| 2026-05-06 11:03 | 35.82177 | 24.37576 | 10078 ft | 303 kts | 174° |
| 2026-05-06 11:04 | 35.80068 | 24.37861 | 10064 ft | 303 kts | 173° |
| 2026-05-06 11:04 | 35.78424 | 24.38083 | 10055 ft | 304 kts | 173° |
| 2026-05-06 11:04 | 35.76454 | 24.38349 | 9975 ft | 299 kts | 173° |
| 2026-05-06 11:04 | 35.74387 | 24.38627 | 9474 ft | 297 kts | 173° |
| 2026-05-06 11:05 | 35.72329 | 24.38904 | 8869 ft | 296 kts | 173° |
| 2026-05-06 11:05 | 35.70567 | 24.39140 | 8326 ft | 293 kts | 173° |
| 2026-05-06 11:05 | 35.68924 | 24.39360 | 7816 ft | 291 kts | 173° |
| 2026-05-06 11:05 | 35.67160 | 24.39597 | 7256 ft | 287 kts | 173° |
| 2026-05-06 11:06 | 35.65343 | 24.39842 | 6712 ft | 284 kts | 173° |
| 2026-05-06 11:06 | 35.63529 | 24.40086 | 6166 ft | 280 kts | 172° |
| 2026-05-06 11:06 | 35.61707 | 24.40332 | 5589 ft | 277 kts | 173° |
| 2026-05-06 11:06 | 35.59977 | 24.40567 | 5007 ft | 275 kts | 173° |
| 2026-05-06 11:07 | 35.58400 | 24.40780 | 4513 ft | 272 kts | 173° |
| 2026-05-06 11:07 | 35.57318 | 24.40918 | 4202 ft | 268 kts | 175° |
| 2026-05-06 11:07 | 35.56063 | 24.40910 | 3994 ft | 259 kts | 185° |
| 2026-05-06 11:07 | 35.54893 | 24.40682 | 3968 ft | 247 kts | 193° |
| 2026-05-06 11:08 | 35.53332 | 24.40032 | 3962 ft | 231 kts | 205° |
| 2026-05-06 11:08 | 35.52109 | 24.39188 | 3928 ft | 217 kts | 215° |
| 2026-05-06 11:08 | 35.50983 | 24.38054 | 3948 ft | 207 kts | 225° |
| 2026-05-06 11:08 | 35.50046 | 24.36717 | 3771 ft | 206 kts | 236° |
| 2026-05-06 11:09 | 35.49320 | 24.35206 | 3597 ft | 203 kts | 245° |
| 2026-05-06 11:09 | 35.48823 | 24.33607 | 3317 ft | 202 kts | 255° |
| 2026-05-06 11:09 | 35.48597 | 24.31918 | 3003 ft | 201 kts | 277° |
| 2026-05-06 11:09 | 35.48955 | 24.30297 | 2824 ft | 190 kts | 291° |
| 2026-05-06 11:10 | 35.49417 | 24.28815 | 2586 ft | 180 kts | 291° |
| 2026-05-06 11:10 | 35.49836 | 24.27419 | 2286 ft | 168 kts | 290° |
| 2026-05-06 11:10 | 35.50203 | 24.26101 | 1987 ft | 159 kts | 286° |
| 2026-05-06 11:10 | 35.50426 | 24.24837 | 1770 ft | 142 kts | 280° |
| 2026-05-06 11:11 | 35.50597 | 24.23673 | 1546 ft | 138 kts | 280° |
| 2026-05-06 11:11 | 35.50778 | 24.22529 | 1383 ft | 137 kts | 284° |
| 2026-05-06 11:11 | 35.51056 | 24.21407 | 1241 ft | 137 kts | 289° |
| 2026-05-06 11:11 | 35.51214 | 24.20885 | 1167 ft | 137 kts | 291° |
| 2026-05-06 11:12 | 35.51327 | 24.20540 | 1117 ft | 137 kts | 292° |
| 2026-05-06 11:12 | 35.51707 | 24.19477 | 955 ft | 136 kts | 292° |
| 2026-05-06 11:12 | 35.52057 | 24.18404 | 778 ft | 136 kts | 291° |
| 2026-05-06 11:13 | 35.52408 | 24.17313 | 606 ft | 135 kts | 291° |
| 2026-05-06 11:13 | 35.52750 | 24.16262 | 474 ft | 128 kts | 292° |
| 2026-05-06 11:13 | 35.53027 | 24.15410 | 457 ft | 81 kts | 291° |
| 2026-05-06 11:13 | 35.53215 | 24.14833 | 449 ft | 68 kts | 292° |
| 2026-05-06 11:14 | 35.53348 | 24.14425 | 440 ft | 32 kts | 291° |
| 2026-05-06 11:14 | 35.53406 | 24.14271 | 438 ft | 12 kts | 323° |
| 2026-05-06 11:14 | 35.53502 | 24.14297 | 432 ft | 17 kts | 21° |
| 2026-05-06 11:14 | 35.53610 | 24.14347 | 426 ft | 11 kts | 22° |
| 2026-05-06 11:15 | 35.53675 | 24.14353 | 422 ft | 8 kts | 316° |
| 2026-05-06 11:15 | 35.53702 | 24.14312 | 421 ft | 5 kts | 339° |
| 2026-05-06 11:15 | 35.53748 | 24.14329 | 420 ft | 7 kts | 22° |
| 2026-05-06 11:15 | 35.53772 | 24.14341 | 418 ft | 2 kts | 22° |
| 2026-05-06 11:16 | 35.53775 | 24.14342 | 418 ft | 0 kts | 22° |